createdAt,value
2023-01-25T00:01:05.851Z,29.53
2023-01-25T00:03:34.002Z,28.47
2023-01-25T00:06:02.619Z,29.20
2023-01-25T00:08:30.702Z,29.27
2023-01-25T00:10:58.828Z,28.50
2023-01-25T00:13:27.152Z,29.93
2023-01-25T00:16:02.301Z,27.50
2023-01-25T00:18:30.412Z,28.03
2023-01-25T00:20:58.527Z,30.43
2023-01-25T00:23:26.638Z,29.00
2023-01-25T00:25:58.851Z,29.30
2023-01-25T00:28:27.109Z,32.63
2023-01-25T00:31:00.341Z,29.40
2023-01-25T00:33:41.032Z,30.20
2023-01-25T00:36:32.622Z,31.10
2023-01-25T00:39:00.688Z,30.83
2023-01-25T00:41:28.864Z,28.77
2023-01-25T00:43:57.187Z,27.67
2023-01-25T00:46:26.547Z,28.13
2023-01-25T00:48:55.708Z,28.63
2023-01-25T00:51:24.586Z,29.43
2023-01-25T00:53:52.827Z,29.13
2023-01-25T00:56:20.934Z,28.50
2023-01-25T00:58:49.131Z,27.50
2023-01-25T01:01:17.283Z,27.40
2023-01-25T01:03:46.759Z,30.97
2023-01-25T01:06:14.936Z,28.77
2023-01-25T01:08:43.626Z,30.87
2023-01-25T01:11:13.057Z,28.97
2023-01-25T01:13:41.556Z,27.90
2023-01-25T01:16:12.325Z,27.40
2023-01-25T01:18:43.281Z,27.83
2023-01-25T01:21:13.677Z,27.00
2023-01-25T01:23:42.163Z,27.47
2023-01-25T01:26:12.586Z,29.27
2023-01-25T01:28:41.670Z,29.40
2023-01-25T01:31:13.478Z,29.87
2023-01-25T01:33:41.651Z,29.47
2023-01-25T01:36:10.195Z,28.97
2023-01-25T01:38:39.732Z,27.60
2023-01-25T01:41:08.099Z,26.47
2023-01-25T01:43:36.734Z,27.37
2023-01-25T01:46:09.488Z,27.80
2023-01-25T01:48:41.980Z,27.03
2023-01-25T01:51:19.465Z,26.90
2023-01-25T01:53:53.754Z,28.30
2023-01-25T01:56:28.505Z,27.40
2023-01-25T01:58:58.935Z,28.07
2023-01-25T02:01:27.263Z,26.97
2023-01-25T02:03:56.385Z,28.67
2023-01-25T02:06:31.011Z,28.83
2023-01-25T02:09:01.605Z,28.30
2023-01-25T02:11:31.760Z,28.20
2023-01-25T02:14:01.165Z,28.30
2023-01-25T02:16:29.877Z,27.83
2023-01-25T02:19:02.096Z,27.30
2023-01-25T02:21:38.882Z,28.40
2023-01-25T02:24:13.514Z,29.40
2023-01-25T02:26:43.079Z,29.80
2023-01-25T02:29:11.563Z,28.20
2023-01-25T02:31:39.679Z,28.93
2023-01-25T02:34:07.883Z,29.47
2023-01-25T02:36:37.013Z,29.87
2023-01-25T02:39:08.582Z,29.00
2023-01-25T02:41:38.313Z,29.10
2023-01-25T02:44:10.825Z,28.87
2023-01-25T02:46:40.441Z,28.40
2023-01-25T02:49:10.433Z,28.13
2023-01-25T02:51:40.220Z,27.00
2023-01-25T02:54:11.284Z,27.93
2023-01-25T02:56:41.282Z,26.80
2023-01-25T02:59:13.290Z,28.97
2023-01-25T03:01:43.815Z,29.13
2023-01-25T03:04:12.406Z,30.40
2023-01-25T03:06:41.183Z,28.77
2023-01-25T03:09:11.404Z,29.30
2023-01-25T03:11:39.508Z,27.77
2023-01-25T03:14:07.636Z,26.63
2023-01-25T03:16:37.293Z,25.77
2023-01-25T03:19:05.633Z,25.70
2023-01-25T03:21:33.679Z,27.23
2023-01-25T03:24:02.809Z,27.03
2023-01-25T03:26:31.136Z,28.37
2023-01-25T03:28:59.193Z,30.27
2023-01-25T03:31:27.444Z,28.13
2023-01-25T03:33:56.932Z,28.90
2023-01-25T03:36:24.868Z,28.57
2023-01-25T03:38:52.953Z,30.73
2023-01-25T03:41:21.016Z,29.10
2023-01-25T03:43:49.093Z,29.20
2023-01-25T03:46:17.191Z,28.60
2023-01-25T03:48:45.279Z,28.33
2023-01-25T03:51:14.644Z,27.90
2023-01-25T03:53:42.700Z,26.53
2023-01-25T03:56:17.516Z,25.93
2023-01-25T03:58:45.587Z,26.90
2023-01-25T04:01:14.256Z,26.37
2023-01-25T04:03:42.413Z,27.40
2023-01-25T04:06:10.730Z,29.07
2023-01-25T04:08:40.362Z,27.80
2023-01-25T04:11:10.538Z,27.47
2023-01-25T04:13:39.370Z,31.20
2023-01-25T04:16:09.583Z,29.43
2023-01-25T04:18:37.693Z,28.70
2023-01-25T04:21:05.932Z,31.53
2023-01-25T04:23:34.078Z,28.07
2023-01-25T04:26:06.238Z,28.07
2023-01-25T04:28:35.386Z,29.97
2023-01-25T04:31:06.065Z,28.40
2023-01-25T04:33:34.644Z,28.07
2023-01-25T04:36:02.751Z,28.20
2023-01-25T04:38:30.960Z,28.20
2023-01-25T04:40:59.015Z,28.20
2023-01-25T04:43:28.518Z,28.60
2023-01-25T04:45:56.680Z,30.40
2023-01-25T04:48:24.761Z,31.30
2023-01-25T04:50:52.831Z,31.20
2023-01-25T04:53:20.909Z,32.57
2023-01-25T04:55:49.208Z,30.80
2023-01-25T04:58:17.576Z,31.67
2023-01-25T05:00:46.959Z,29.43
2023-01-25T05:03:15.059Z,28.37
2023-01-25T05:05:47.597Z,28.93
2023-01-25T05:08:15.799Z,30.73
2023-01-25T05:10:43.832Z,28.80
2023-01-25T05:13:12.201Z,30.10
2023-01-25T05:15:40.243Z,29.07
2023-01-25T05:18:09.636Z,27.97
2023-01-25T05:20:37.739Z,28.83
2023-01-25T05:23:05.780Z,28.20
2023-01-25T05:25:51.459Z,29.20
2023-01-25T05:28:19.569Z,30.23
2023-01-25T05:30:47.614Z,29.70
2023-01-25T05:33:16.991Z,29.23
2023-01-25T05:35:44.850Z,29.50
2023-01-25T05:38:12.999Z,30.27
2023-01-25T05:40:43.565Z,30.30
2023-01-25T05:43:11.657Z,30.23
2023-01-25T05:45:40.298Z,28.67
2023-01-25T05:48:08.407Z,29.45
2023-01-25T05:50:37.811Z,29.17
2023-01-25T05:53:05.876Z,28.33
2023-01-25T05:55:36.791Z,27.27
2023-01-25T05:58:04.969Z,27.20
2023-01-25T06:00:33.161Z,27.33
2023-01-25T06:03:02.525Z,28.50
2023-01-25T06:05:30.751Z,28.73
2023-01-25T06:08:00.673Z,29.80
2023-01-25T06:10:28.782Z,28.33
2023-01-25T06:13:01.087Z,29.50
2023-01-25T06:15:29.259Z,29.50
2023-01-25T06:17:57.673Z,27.90
2023-01-25T06:20:27.300Z,29.07
2023-01-25T06:22:55.618Z,28.10
2023-01-25T06:25:25.093Z,28.13
2023-01-25T06:27:55.739Z,29.20
2023-01-25T06:30:23.863Z,27.80
2023-01-25T06:32:51.917Z,27.53
2023-01-25T06:35:20.020Z,25.03
2023-01-25T06:37:48.952Z,23.87
2023-01-25T06:40:17.481Z,23.60
2023-01-25T06:42:46.905Z,23.87
2023-01-25T06:45:15.379Z,25.23
2023-01-25T06:47:43.459Z,24.97
2023-01-25T06:50:11.875Z,26.03
2023-01-25T06:52:42.019Z,26.60
2023-01-25T06:55:13.874Z,26.70
2023-01-25T06:57:41.950Z,26.77
2023-01-25T07:00:12.850Z,25.60
2023-01-25T07:02:42.210Z,24.80
2023-01-25T07:05:12.349Z,27.83
2023-01-25T07:07:40.484Z,26.20
2023-01-25T07:10:09.544Z,26.90
2023-01-25T07:12:37.853Z,26.17
2023-01-25T07:15:08.226Z,24.70
2023-01-25T07:17:37.858Z,25.77
2023-01-25T07:20:06.728Z,26.50
2023-01-25T07:22:35.689Z,28.07
2023-01-25T07:25:03.867Z,27.23
2023-01-25T07:27:35.074Z,26.70
2023-01-25T07:30:03.265Z,25.70
2023-01-25T07:32:31.419Z,28.43
2023-01-25T07:35:00.880Z,24.70
2023-01-25T07:37:29.382Z,24.50
2023-01-25T07:39:58.257Z,25.67
2023-01-25T07:42:26.437Z,24.80
2023-01-25T07:44:54.496Z,24.90
2023-01-25T07:47:22.708Z,24.53
2023-01-25T07:49:50.716Z,23.13
2023-01-25T07:52:20.119Z,23.23
2023-01-25T07:54:49.944Z,24.37
2023-01-25T07:57:18.150Z,24.10
2023-01-25T07:59:46.159Z,26.93
2023-01-25T08:02:14.356Z,25.63
2023-01-25T08:04:43.010Z,25.53
2023-01-25T08:07:11.078Z,27.33
2023-01-25T08:09:41.052Z,27.27
2023-01-25T08:12:09.387Z,28.37
2023-01-25T08:14:38.419Z,27.23
2023-01-25T08:17:06.487Z,26.80
2023-01-25T08:19:34.630Z,25.20
2023-01-25T08:22:02.700Z,24.17
2023-01-25T08:24:30.863Z,25.43
2023-01-25T08:27:00.313Z,28.35
2023-01-25T08:29:28.883Z,28.87
2023-01-25T08:31:57.011Z,27.80
2023-01-25T08:34:25.131Z,25.90
2023-01-25T08:36:53.443Z,25.43
2023-01-25T08:39:21.634Z,25.43
2023-01-25T08:41:49.655Z,24.80
2023-01-25T08:44:22.442Z,25.03
2023-01-25T08:46:50.904Z,27.13
2023-01-25T08:49:19.077Z,26.03
2023-01-25T08:51:50.227Z,25.47
2023-01-25T08:54:18.329Z,25.87
2023-01-25T08:56:46.408Z,25.90
2023-01-25T08:59:15.054Z,26.10
2023-01-25T09:01:44.454Z,25.03
2023-01-25T09:04:12.577Z,24.07
2023-01-25T09:06:40.680Z,23.70
2023-01-25T09:09:09.121Z,24.40
2023-01-25T09:11:38.238Z,23.20
2023-01-25T09:14:06.664Z,22.57
2023-01-25T09:16:35.007Z,22.53
2023-01-25T09:19:06.199Z,23.27
2023-01-25T09:21:34.862Z,23.30
2023-01-25T09:24:07.552Z,23.13
2023-01-25T09:26:37.633Z,27.93
2023-01-25T09:29:07.857Z,26.57
2023-01-25T09:31:40.289Z,26.03
2023-01-25T09:34:11.304Z,26.43
2023-01-25T09:36:39.646Z,27.23
2023-01-25T09:39:07.725Z,27.03
2023-01-25T09:42:00.731Z,26.43
2023-01-25T09:44:43.285Z,26.50
2023-01-25T09:47:22.243Z,26.40
2023-01-25T09:50:23.298Z,26.50
2023-01-25T09:53:22.597Z,25.50
2023-01-25T09:55:54.014Z,24.00
2023-01-25T09:58:25.512Z,24.47
2023-01-25T10:01:00.545Z,24.07
2023-01-25T10:03:39.604Z,23.53
2023-01-25T10:06:14.243Z,24.83
2023-01-25T10:08:52.772Z,25.13
2023-01-25T10:11:25.745Z,25.30
2023-01-25T10:13:56.458Z,26.87
2023-01-25T10:16:30.844Z,25.77
2023-01-25T10:19:14.100Z,27.93
2023-01-25T10:21:46.622Z,27.13
2023-01-25T10:24:35.496Z,27.43
2023-01-25T10:27:24.033Z,25.97
2023-01-25T10:29:56.166Z,25.97
2023-01-25T10:32:31.949Z,27.00
2023-01-25T10:35:15.556Z,25.60
2023-01-25T10:37:50.659Z,25.50
2023-01-25T10:40:23.952Z,24.37
2023-01-25T10:42:56.072Z,25.00
2023-01-25T10:45:24.231Z,26.57
2023-01-25T10:47:57.275Z,27.37
2023-01-25T10:50:46.307Z,26.77
2023-01-25T10:53:31.050Z,26.17
2023-01-25T10:56:19.428Z,26.87
2023-01-25T10:58:49.562Z,25.63
2023-01-25T11:01:29.046Z,25.57
2023-01-25T11:03:57.502Z,26.30
2023-01-25T11:06:34.809Z,26.23
2023-01-25T11:09:35.860Z,25.80
2023-01-25T11:12:07.405Z,25.93
2023-01-25T11:14:35.608Z,26.57
2023-01-25T11:17:06.538Z,27.27
2023-01-25T11:19:36.818Z,27.20
2023-01-25T11:22:06.672Z,26.37
2023-01-25T11:24:37.861Z,26.87
2023-01-25T11:27:22.763Z,27.07
2023-01-25T11:30:11.101Z,25.70
2023-01-25T11:32:40.687Z,28.47
2023-01-25T11:35:15.070Z,25.07
2023-01-25T11:38:03.243Z,25.93
2023-01-25T11:40:39.188Z,24.17
2023-01-25T11:43:18.092Z,24.80
2023-01-25T11:46:16.742Z,26.67
2023-01-25T11:49:10.030Z,26.57
2023-01-25T11:51:49.916Z,25.07
2023-01-25T11:54:36.963Z,26.70
2023-01-25T11:57:20.336Z,26.10
2023-01-25T12:00:13.455Z,26.50
2023-01-25T12:03:17.340Z,28.17
2023-01-25T12:05:57.903Z,26.13
2023-01-25T12:08:45.901Z,25.43
2023-01-25T12:11:21.103Z,26.70
2023-01-25T12:14:02.142Z,25.83
2023-01-25T12:16:44.764Z,26.20
2023-01-25T12:19:35.557Z,26.73
2023-01-25T12:22:19.521Z,26.30
2023-01-25T12:24:58.675Z,26.30
2023-01-25T12:27:40.677Z,26.13
2023-01-25T12:30:22.831Z,26.77
2023-01-25T12:32:59.488Z,26.90
2023-01-25T12:35:35.423Z,27.00
2023-01-25T12:38:09.779Z,26.20
2023-01-25T12:40:47.472Z,27.47
2023-01-25T12:43:21.761Z,25.70
2023-01-25T12:45:52.681Z,27.13
2023-01-25T12:48:24.749Z,25.73
2023-01-25T12:50:56.456Z,26.80
2023-01-25T12:53:27.937Z,28.67
2023-01-25T12:55:58.561Z,28.13
2023-01-25T12:58:38.121Z,26.20
2023-01-25T13:01:18.451Z,26.97
2023-01-25T13:04:01.819Z,27.77
2023-01-25T13:06:39.978Z,26.33
2023-01-25T13:09:16.502Z,26.30
2023-01-25T13:11:47.050Z,27.10
2023-01-25T13:14:30.861Z,24.80
2023-01-25T13:17:22.724Z,24.77
2023-01-25T13:19:52.003Z,25.90
2023-01-25T13:22:58.758Z,26.40
2023-01-25T13:25:28.743Z,26.67
2023-01-25T13:28:43.409Z,26.03
2023-01-25T13:31:11.914Z,29.13
2023-01-25T13:33:41.380Z,28.60
2023-01-25T13:36:46.398Z,28.03
2023-01-25T13:39:44.054Z,27.70
2023-01-25T13:42:23.552Z,29.13
2023-01-25T13:44:54.241Z,28.60
2023-01-25T13:47:25.200Z,28.90
2023-01-25T13:50:03.398Z,28.63
2023-01-25T13:52:32.354Z,29.07
2023-01-25T13:55:00.648Z,27.57
2023-01-25T13:57:31.214Z,27.53
2023-01-25T14:00:10.646Z,27.27
2023-01-25T14:02:41.384Z,27.63
2023-01-25T14:05:20.136Z,28.70
2023-01-25T14:07:50.770Z,29.40
2023-01-25T14:10:24.147Z,29.07
2023-01-25T14:12:53.914Z,27.83
2023-01-25T14:15:26.301Z,27.10
2023-01-25T14:18:22.376Z,26.80
2023-01-25T14:20:53.653Z,26.90
2023-01-25T14:23:24.183Z,27.50
2023-01-25T14:25:54.017Z,27.10
2023-01-25T14:28:22.931Z,27.97
2023-01-25T14:30:55.740Z,27.57
2023-01-25T14:33:27.224Z,28.13
2023-01-25T14:36:11.859Z,26.90
2023-01-25T14:38:45.414Z,27.57
2023-01-25T14:41:15.668Z,26.43
2023-01-25T14:43:46.250Z,26.40
2023-01-25T14:46:22.574Z,30.00
2023-01-25T14:48:52.759Z,28.70
2023-01-25T14:51:28.331Z,27.60
2023-01-25T14:54:02.574Z,32.70
2023-01-25T14:56:35.756Z,28.60
2023-01-25T14:59:06.330Z,28.83
2023-01-25T15:01:40.747Z,28.67
2023-01-25T15:04:13.520Z,29.40
2023-01-25T15:06:51.545Z,29.37
2023-01-25T15:09:38.289Z,30.13
2023-01-25T15:12:27.964Z,31.17
2023-01-25T15:14:57.704Z,29.97
2023-01-25T15:17:44.036Z,33.57
2023-01-25T15:20:39.940Z,32.10
2023-01-25T15:23:24.235Z,31.63
2023-01-25T15:25:54.496Z,32.47
2023-01-25T15:28:24.395Z,32.47
2023-01-25T15:30:53.175Z,32.40
2023-01-25T15:33:23.786Z,31.77
2023-01-25T15:35:52.518Z,31.60
2023-01-25T15:38:22.953Z,29.10
2023-01-25T15:40:52.135Z,28.07
2023-01-25T15:43:21.332Z,28.00
2023-01-25T15:45:51.534Z,28.37
2023-01-25T15:48:24.122Z,28.20
2023-01-25T15:50:54.246Z,27.10
2023-01-25T15:53:24.212Z,28.83
2023-01-25T15:55:56.478Z,28.37
2023-01-25T15:58:27.175Z,27.67
2023-01-25T16:00:55.434Z,27.10
2023-01-25T16:03:23.629Z,28.07
2023-01-25T16:05:57.774Z,28.40
2023-01-25T16:08:27.274Z,28.20
2023-01-25T16:10:56.084Z,28.70
2023-01-25T16:13:24.904Z,30.30
2023-01-25T16:15:56.973Z,31.10
2023-01-25T16:18:25.082Z,30.57
2023-01-25T16:20:53.408Z,32.50
2023-01-25T16:23:21.781Z,31.80
2023-01-25T16:25:51.336Z,30.70
2023-01-25T16:28:19.441Z,30.30
2023-01-25T16:30:47.614Z,32.23
2023-01-25T16:33:15.719Z,31.47
2023-01-25T16:35:43.611Z,32.17
2023-01-25T16:38:12.857Z,30.70
2023-01-25T16:40:41.108Z,31.10
2023-01-25T16:43:10.562Z,30.23
2023-01-25T16:45:39.773Z,33.70
2023-01-25T16:48:08.250Z,35.30
2023-01-25T16:50:36.530Z,35.50
2023-01-25T16:53:04.628Z,33.30
2023-01-25T16:55:32.739Z,34.83
2023-01-25T16:58:00.837Z,34.10
2023-01-25T17:00:30.805Z,36.20
2023-01-25T17:02:59.920Z,33.03
2023-01-25T17:05:33.527Z,34.57
2023-01-25T17:08:01.684Z,31.70
2023-01-25T17:10:33.104Z,31.70
2023-01-25T17:13:01.240Z,32.97
2023-01-25T17:15:31.302Z,29.87
2023-01-25T17:17:59.425Z,31.20
2023-01-25T17:20:27.554Z,31.93
2023-01-25T17:22:55.667Z,33.87
2023-01-25T17:25:24.071Z,30.53
2023-01-25T17:27:52.132Z,31.13
2023-01-25T17:30:20.340Z,31.47
2023-01-25T17:32:49.854Z,32.37
2023-01-25T17:35:18.093Z,33.27
2023-01-25T17:37:46.162Z,37.13
2023-01-25T17:40:14.397Z,38.90
2023-01-25T17:42:42.477Z,38.17
2023-01-25T17:45:11.758Z,38.40
2023-01-25T17:47:40.085Z,38.17
2023-01-25T17:50:11.118Z,39.20
2023-01-25T17:52:39.398Z,41.17
2023-01-25T17:55:08.463Z,39.83
2023-01-25T17:57:37.241Z,39.17
2023-01-25T18:00:06.972Z,40.60
2023-01-25T18:02:35.122Z,40.73
2023-01-25T18:05:03.304Z,42.30
2023-01-25T18:07:32.793Z,40.93
2023-01-25T18:10:00.789Z,40.60
2023-01-25T18:12:29.152Z,39.20
2023-01-25T18:14:57.250Z,39.73
2023-01-25T18:17:25.430Z,42.17
2023-01-25T18:19:53.652Z,43.70
2023-01-25T18:22:21.769Z,42.73
2023-01-25T18:24:52.296Z,43.47
2023-01-25T18:27:22.530Z,43.27
2023-01-25T18:29:56.533Z,42.30
2023-01-25T18:32:24.699Z,43.67
2023-01-25T18:34:52.884Z,43.63
2023-01-25T18:37:25.777Z,45.90
2023-01-25T18:39:56.555Z,43.73
2023-01-25T18:42:27.233Z,49.60
2023-01-25T18:44:55.403Z,45.10
2023-01-25T18:47:24.436Z,46.87
2023-01-25T18:49:53.730Z,47.17
2023-01-25T18:52:23.711Z,46.83
2023-01-25T18:54:52.443Z,44.23
2023-01-25T18:57:22.012Z,46.63
2023-01-25T18:59:50.300Z,47.80
2023-01-25T19:02:18.981Z,50.57
2023-01-25T19:04:47.300Z,51.70
2023-01-25T19:07:15.596Z,50.93
2023-01-25T19:09:44.543Z,51.20
2023-01-25T19:12:13.063Z,50.77
2023-01-25T19:14:42.850Z,50.23
2023-01-25T19:17:11.015Z,51.93
2023-01-25T19:19:39.311Z,52.80
2023-01-25T19:22:07.616Z,54.17
2023-01-25T19:24:35.833Z,51.63
2023-01-25T19:27:03.924Z,51.73
2023-01-25T19:29:32.236Z,54.25
2023-01-25T19:32:01.735Z,50.10
2023-01-25T19:34:29.755Z,47.80
2023-01-25T19:36:58.254Z,48.80
2023-01-25T19:39:27.133Z,48.50
2023-01-25T19:41:55.277Z,49.93
2023-01-25T19:44:24.858Z,52.00
2023-01-25T19:46:52.886Z,53.30
2023-01-25T19:49:24.435Z,49.57
2023-01-25T19:51:53.942Z,51.73
2023-01-25T19:54:23.077Z,50.77
2023-01-25T19:56:52.342Z,53.43
2023-01-25T19:59:21.738Z,50.60
2023-01-25T20:01:50.188Z,52.33
2023-01-25T20:04:20.729Z,56.73
2023-01-25T20:06:51.225Z,55.67
2023-01-25T20:09:20.720Z,57.00
2023-01-25T20:11:48.796Z,57.33
2023-01-25T20:14:16.921Z,57.33
2023-01-25T20:16:46.942Z,58.20
2023-01-25T20:19:15.017Z,60.17
2023-01-25T20:21:43.093Z,61.00
2023-01-25T20:24:12.536Z,60.30
2023-01-25T20:26:43.092Z,60.87
2023-01-25T20:29:12.680Z,60.47
2023-01-25T20:31:42.315Z,62.23
2023-01-25T20:34:13.119Z,58.83
2023-01-25T20:36:41.667Z,62.03
2023-01-25T20:39:11.934Z,58.73
2023-01-25T20:41:42.671Z,60.17
2023-01-25T20:44:13.059Z,64.37
2023-01-25T20:46:42.780Z,63.57
2023-01-25T20:49:14.407Z,65.57
2023-01-25T20:51:43.627Z,64.87
2023-01-25T20:54:12.086Z,64.70
2023-01-25T20:56:42.912Z,66.60
2023-01-25T20:59:12.047Z,67.07
2023-01-25T21:01:40.623Z,66.87
2023-01-25T21:04:09.717Z,65.70
2023-01-25T21:06:38.649Z,69.80
2023-01-25T21:09:07.494Z,64.50
2023-01-25T21:11:35.711Z,68.97
2023-01-25T21:14:05.873Z,70.63
2023-01-25T21:16:34.114Z,68.13
2023-01-25T21:19:06.558Z,70.10
2023-01-25T21:21:35.519Z,70.70
2023-01-25T21:24:05.334Z,72.27
2023-01-25T21:26:34.872Z,71.20
2023-01-25T21:29:05.799Z,69.57
2023-01-25T21:31:35.055Z,71.40
2023-01-25T21:34:03.977Z,70.37
2023-01-25T21:36:31.901Z,75.83
2023-01-25T21:39:00.086Z,73.17
2023-01-25T21:41:30.095Z,73.23
2023-01-25T21:44:17.164Z,75.00
2023-01-25T21:47:12.542Z,78.40
2023-01-25T21:49:52.315Z,74.40
2023-01-25T21:52:20.379Z,74.67
2023-01-25T21:54:48.450Z,76.10
2023-01-25T21:57:16.552Z,75.27
2023-01-25T21:59:44.592Z,76.97
2023-01-25T22:02:15.373Z,75.43
2023-01-25T22:04:43.542Z,74.20
2023-01-25T22:07:12.433Z,75.63
2023-01-25T22:09:40.459Z,77.33
2023-01-25T22:12:08.699Z,74.47
2023-01-25T22:14:36.791Z,75.33
2023-01-25T22:17:05.113Z,78.27
2023-01-25T22:19:34.557Z,74.50
2023-01-25T22:22:02.677Z,76.40
2023-01-25T22:24:30.750Z,77.90
2023-01-25T22:27:05.115Z,76.60
2023-01-25T22:29:34.150Z,78.67
2023-01-25T22:32:02.472Z,75.50
2023-01-25T22:34:30.599Z,78.33
2023-01-25T22:37:00.045Z,76.83
2023-01-25T22:39:28.106Z,79.13
2023-01-25T22:41:56.803Z,75.77
2023-01-25T22:44:24.864Z,80.30
2023-01-25T22:46:53.806Z,74.63
2023-01-25T22:49:21.933Z,76.03
2023-01-25T22:51:50.067Z,76.57
2023-01-25T22:54:19.687Z,77.13
2023-01-25T22:56:47.765Z,81.83
2023-01-25T22:59:18.881Z,82.73
2023-01-25T23:01:47.348Z,80.20
2023-01-25T23:04:15.560Z,78.00
2023-01-25T23:06:43.646Z,81.03
2023-01-25T23:09:11.897Z,79.67
2023-01-25T23:11:41.392Z,80.20
2023-01-25T23:14:30.441Z,79.77
2023-01-25T23:17:18.780Z,80.10
2023-01-25T23:19:46.030Z,84.87
2023-01-25T23:22:14.074Z,76.73
2023-01-25T23:24:43.276Z,76.10
2023-01-25T23:27:13.008Z,79.40
2023-01-25T23:29:41.015Z,75.90
2023-01-25T23:32:09.114Z,76.37
2023-01-25T23:34:39.487Z,77.57
2023-01-25T23:37:07.687Z,78.10
2023-01-25T23:39:35.771Z,77.67
2023-01-25T23:42:04.347Z,77.10
2023-01-25T23:44:33.799Z,73.73
2023-01-25T23:47:02.528Z,75.90
2023-01-25T23:49:30.636Z,73.53
2023-01-25T23:51:58.675Z,72.77
2023-01-25T23:54:27.070Z,73.40
2023-01-25T23:56:55.153Z,77.97
2023-01-25T23:59:23.370Z,74.27
